createdAt,value
2018-08-30T00:00:23.120Z,59.05
2018-08-30T00:02:50.309Z,59.97
2018-08-30T00:05:17.739Z,61.19
2018-08-30T00:07:44.941Z,60.58
2018-08-30T00:10:12.098Z,61.67
2018-08-30T00:12:39.359Z,60.91
2018-08-30T00:15:06.617Z,61.28
2018-08-30T00:17:33.827Z,59.83
2018-08-30T00:20:01.011Z,60.66
2018-08-30T00:22:28.860Z,60.81
2018-08-30T00:24:56.105Z,61.58
2018-08-30T00:27:23.352Z,61.91
2018-08-30T00:29:50.686Z,62.01
2018-08-30T00:32:18.873Z,61.84
2018-08-30T00:34:46.040Z,63.37
2018-08-30T00:37:13.151Z,61.56
2018-08-30T00:39:41.307Z,63.59
2018-08-30T00:42:08.539Z,64.68
2018-08-30T00:44:35.640Z,64.88
2018-08-30T00:47:02.837Z,64.85
2018-08-30T00:49:30.013Z,64.39
2018-08-30T00:51:57.190Z,63.91
2018-08-30T00:54:24.409Z,64.49
2018-08-30T00:56:51.718Z,64.27
2018-08-30T00:59:18.835Z,64.10
2018-08-30T01:01:45.956Z,63.97
2018-08-30T01:04:13.166Z,63.10
2018-08-30T01:06:40.375Z,62.86
2018-08-30T01:09:07.521Z,62.85
2018-08-30T01:11:34.740Z,62.07
2018-08-30T01:14:01.862Z,61.74
2018-08-30T01:16:29.083Z,62.27
2018-08-30T01:18:56.328Z,61.94
2018-08-30T01:21:23.422Z,62.53
2018-08-30T01:23:50.553Z,63.26
2018-08-30T01:26:18.216Z,63.44
2018-08-30T01:28:45.416Z,63.91
2018-08-30T01:31:12.659Z,63.83
2018-08-30T01:33:39.845Z,65.56
2018-08-30T01:36:07.011Z,65.70
2018-08-30T01:38:34.146Z,65.27
2018-08-30T01:41:01.360Z,65.18
2018-08-30T01:43:28.580Z,66.27
2018-08-30T01:45:55.712Z,66.06
2018-08-30T01:48:22.893Z,66.57
2018-08-30T01:50:50.005Z,66.34
2018-08-30T01:53:17.171Z,67.71
2018-08-30T01:55:44.468Z,68.91
2018-08-30T01:58:11.586Z,67.61
2018-08-30T02:00:38.699Z,67.71
2018-08-30T02:03:05.886Z,67.35
2018-08-30T02:05:33.121Z,67.44
2018-08-30T02:08:00.324Z,67.33
2018-08-30T02:10:27.468Z,66.41
2018-08-30T02:12:54.660Z,66.29
2018-08-30T02:15:21.801Z,67.60
2018-08-30T02:17:49.022Z,67.63
2018-08-30T02:20:16.243Z,68.31
2018-08-30T02:22:43.355Z,67.84
2018-08-30T02:25:10.529Z,68.75
2018-08-30T02:27:37.652Z,66.76
2018-08-30T02:30:05.179Z,67.80
2018-08-30T02:32:32.464Z,66.91
2018-08-30T02:34:59.608Z,66.21
2018-08-30T02:37:26.730Z,66.40
2018-08-30T02:39:53.893Z,66.24
2018-08-30T02:42:21.110Z,66.33
2018-08-30T02:44:48.301Z,67.36
2018-08-30T02:47:15.468Z,68.73
2018-08-30T02:49:43.729Z,69.14
2018-08-30T02:52:10.871Z,69.11
2018-08-30T02:54:38.079Z,69.63
2018-08-30T02:57:05.376Z,71.36
2018-08-30T02:59:32.538Z,70.99
2018-08-30T03:01:59.778Z,71.75
2018-08-30T03:04:26.932Z,72.66
2018-08-30T03:06:54.097Z,73.08
2018-08-30T03:09:21.379Z,73.11
2018-08-30T03:11:48.523Z,72.74
2018-08-30T03:14:15.655Z,72.91
2018-08-30T03:16:42.851Z,72.26
2018-08-30T03:19:10.025Z,71.85
2018-08-30T03:21:37.240Z,75.43
2018-08-30T03:24:04.450Z,76.03
2018-08-30T03:26:31.584Z,74.81
2018-08-30T03:28:58.744Z,74.75
2018-08-30T03:31:25.982Z,75.03
2018-08-30T03:33:53.172Z,75.73
2018-08-30T03:36:20.297Z,75.08
2018-08-30T03:38:47.476Z,75.09
2018-08-30T03:41:14.596Z,76.96
2018-08-30T03:43:41.731Z,75.66
2018-08-30T03:46:09.013Z,76.12
2018-08-30T03:48:36.144Z,76.41
2018-08-30T03:51:03.379Z,75.45
2018-08-30T03:53:30.548Z,73.69
2018-08-30T03:55:57.736Z,75.55
2018-08-30T03:58:24.993Z,74.26
2018-08-30T04:00:52.172Z,73.79
2018-08-30T04:03:19.312Z,74.97
2018-08-30T04:05:46.408Z,74.15
2018-08-30T04:08:13.646Z,72.45
2018-08-30T04:10:40.876Z,75.73
2018-08-30T04:13:08.014Z,74.07
2018-08-30T04:15:35.176Z,73.21
2018-08-30T04:18:02.319Z,75.67
2018-08-30T04:20:29.583Z,75.98
2018-08-30T04:22:56.905Z,73.23
2018-08-30T04:25:24.095Z,76.97
2018-08-30T04:27:51.411Z,77.00
2018-08-30T04:30:18.595Z,76.39
2018-08-30T04:32:45.776Z,74.93
2018-08-30T04:35:12.963Z,76.15
2018-08-30T04:37:40.114Z,76.83
2018-08-30T04:40:07.338Z,76.09
2018-08-30T04:42:34.486Z,74.72
2018-08-30T04:45:01.703Z,76.44
2018-08-30T04:47:28.922Z,74.78
2018-08-30T04:49:56.051Z,73.36
2018-08-30T04:52:23.220Z,70.62
2018-08-30T04:54:50.328Z,70.85
2018-08-30T04:57:17.492Z,72.29
2018-08-30T04:59:44.814Z,73.28
2018-08-30T05:02:11.989Z,76.24
2018-08-30T05:04:39.133Z,74.34
2018-08-30T05:07:07.169Z,76.60
2018-08-30T05:09:34.361Z,78.37
2018-08-30T05:12:01.541Z,79.21
2018-08-30T05:14:28.736Z,79.28
2018-08-30T05:16:55.906Z,85.11
2018-08-30T05:19:23.036Z,88.35
2018-08-30T05:21:50.225Z,84.04
2018-08-30T05:24:17.454Z,79.78
2018-08-30T05:26:44.656Z,81.39
2018-08-30T05:29:17.676Z,85.71
2018-08-30T05:31:45.063Z,84.18
2018-08-30T05:34:12.807Z,82.13
2018-08-30T05:36:40.130Z,82.97
2018-08-30T05:39:07.945Z,84.70
2018-08-30T05:41:35.076Z,85.27
2018-08-30T05:44:02.554Z,82.26
2018-08-30T05:46:29.765Z,83.16
2018-08-30T05:48:57.024Z,79.47
2018-08-30T05:51:24.182Z,81.74
2018-08-30T05:53:51.379Z,82.00
2018-08-30T05:56:18.501Z,84.16
2018-08-30T05:58:45.711Z,83.47
2018-08-30T06:01:12.998Z,82.79
2018-08-30T06:03:40.216Z,77.32
2018-08-30T06:06:07.810Z,77.66
2018-08-30T06:08:35.056Z,75.24
2018-08-30T06:11:02.340Z,73.55
2018-08-30T06:13:29.608Z,74.17
2018-08-30T06:15:56.773Z,74.57
2018-08-30T06:18:23.971Z,71.37
2018-08-30T06:20:51.299Z,70.96
2018-08-30T06:23:18.879Z,73.14
2018-08-30T06:25:46.141Z,74.64
2018-08-30T06:28:13.339Z,75.10
2018-08-30T06:30:40.484Z,75.23
2018-08-30T06:33:07.789Z,73.76
2018-08-30T06:35:35.172Z,76.33
2018-08-30T06:38:02.408Z,74.06
2018-08-30T06:40:30.593Z,74.61
2018-08-30T06:42:57.785Z,74.31
2018-08-30T06:45:25.429Z,74.68
2018-08-30T06:47:52.601Z,73.34
2018-08-30T06:50:19.885Z,75.06
2018-08-30T06:52:47.168Z,75.58
2018-08-30T06:55:14.266Z,74.81
2018-08-30T06:57:41.416Z,74.00
2018-08-30T07:00:08.583Z,75.46
2018-08-30T07:02:35.767Z,75.15
2018-08-30T07:05:03.016Z,73.80
2018-08-30T07:07:30.146Z,74.09
2018-08-30T07:09:57.354Z,73.00
2018-08-30T07:12:24.628Z,74.76
2018-08-30T07:14:51.995Z,73.42
2018-08-30T07:17:19.131Z,74.04
2018-08-30T07:19:46.614Z,72.89
2018-08-30T07:22:13.733Z,72.56
2018-08-30T07:24:40.941Z,72.71
2018-08-30T07:27:08.184Z,73.89
2018-08-30T07:29:35.324Z,73.31
2018-08-30T07:32:02.495Z,74.27
2018-08-30T07:34:29.742Z,76.14
2018-08-30T07:36:56.951Z,76.99
2018-08-30T07:39:24.230Z,77.00
2018-08-30T07:41:51.405Z,78.71
2018-08-30T07:44:18.631Z,78.58
2018-08-30T07:46:46.744Z,79.93
2018-08-30T07:49:14.060Z,81.65
2018-08-30T07:51:41.340Z,82.67
2018-08-30T07:54:08.481Z,85.66
2018-08-30T07:56:35.661Z,88.12
2018-08-30T07:59:02.897Z,89.11
2018-08-30T08:01:30.099Z,90.51
2018-08-30T08:03:57.323Z,90.54
2018-08-30T08:06:24.476Z,91.38
2018-08-30T08:08:51.588Z,92.13
2018-08-30T08:11:18.795Z,92.37
2018-08-30T08:13:46.020Z,93.70
2018-08-30T08:16:13.270Z,92.44
2018-08-30T08:18:40.467Z,92.62
2018-08-30T08:21:07.627Z,90.34
2018-08-30T08:23:34.732Z,90.46
2018-08-30T08:26:02.019Z,89.62
2018-08-30T08:28:29.259Z,88.95
2018-08-30T08:30:56.367Z,90.82
2018-08-30T08:33:23.520Z,89.28
2018-08-30T08:35:50.659Z,90.15
2018-08-30T08:38:17.843Z,88.89
2018-08-30T08:40:45.149Z,90.25
2018-08-30T08:43:12.307Z,90.05
2018-08-30T08:45:39.416Z,89.45
2018-08-30T08:48:06.719Z,90.19
2018-08-30T08:50:33.954Z,90.75
2018-08-30T08:53:01.183Z,91.58
2018-08-30T08:55:28.344Z,90.20
2018-08-30T08:57:55.462Z,92.06
2018-08-30T09:00:22.617Z,93.03
2018-08-30T09:02:49.860Z,93.94
2018-08-30T09:05:17.042Z,93.50
2018-08-30T09:07:44.352Z,95.50
2018-08-30T09:10:11.501Z,97.58
2018-08-30T09:12:38.735Z,95.96
2018-08-30T09:15:05.943Z,98.63
2018-08-30T09:17:33.191Z,97.38
2018-08-30T09:20:00.379Z,98.00
2018-08-30T09:22:27.514Z,96.61
2018-08-30T09:24:54.707Z,97.31
2018-08-30T09:27:21.876Z,94.85
2018-08-30T09:29:49.080Z,95.76
2018-08-30T09:32:16.261Z,95.30
2018-08-30T09:34:43.571Z,96.33
2018-08-30T09:37:13.118Z,95.90
2018-08-30T09:39:40.362Z,96.09
2018-08-30T09:42:07.564Z,95.98
2018-08-30T09:44:34.675Z,98.42
2018-08-30T09:47:01.863Z,97.47
2018-08-30T09:49:28.981Z,97.17
2018-08-30T09:51:56.181Z,98.31
2018-08-30T09:54:23.422Z,99.62
2018-08-30T09:56:50.620Z,99.31
2018-08-30T09:59:17.734Z,98.54
2018-08-30T10:01:49.918Z,99.96
2018-08-30T10:04:17.706Z,98.96
2018-08-30T10:06:44.895Z,99.65
2018-08-30T10:09:12.118Z,99.01
2018-08-30T10:11:40.065Z,100.00
2018-08-30T10:14:07.176Z,100.00
2018-08-30T10:16:34.480Z,100.00
2018-08-30T10:19:01.667Z,100.00
2018-08-30T10:21:28.939Z,98.45
2018-08-30T10:23:56.145Z,97.56
2018-08-30T10:26:23.324Z,96.21
2018-08-30T10:28:50.577Z,92.69
2018-08-30T10:31:17.888Z,94.30
2018-08-30T10:33:44.993Z,92.96
2018-08-30T10:36:12.080Z,94.20
2018-08-30T10:38:39.231Z,93.01
2018-08-30T10:41:06.483Z,93.46
2018-08-30T10:43:33.742Z,93.05
2018-08-30T10:46:00.896Z,90.98
2018-08-30T10:48:28.082Z,90.25
2018-08-30T10:50:55.189Z,89.27
2018-08-30T10:53:23.209Z,90.01
2018-08-30T10:55:50.456Z,89.96
2018-08-30T10:58:36.605Z,90.90
2018-08-30T11:01:03.838Z,92.08
2018-08-30T11:03:32.200Z,93.14
2018-08-30T11:05:59.483Z,91.91
2018-08-30T11:08:26.612Z,89.95
2018-08-30T11:10:53.737Z,89.70
2018-08-30T11:13:21.000Z,88.77
2018-08-30T11:15:48.179Z,88.08
2018-08-30T11:18:15.376Z,88.01
2018-08-30T11:20:44.587Z,86.87
2018-08-30T11:23:11.695Z,87.58
2018-08-30T11:25:38.832Z,87.25
2018-08-30T11:28:06.064Z,86.79
2018-08-30T11:30:33.279Z,86.31
2018-08-30T11:33:00.407Z,87.87
2018-08-30T11:35:27.608Z,88.04
2018-08-30T11:37:54.705Z,85.97
2018-08-30T11:40:21.865Z,86.10
2018-08-30T11:42:49.499Z,85.41
2018-08-30T11:45:16.631Z,84.64
2018-08-30T11:47:44.338Z,86.66
2018-08-30T11:50:11.543Z,86.22
2018-08-30T11:52:39.919Z,86.15
2018-08-30T11:55:07.114Z,86.76
2018-08-30T11:57:34.296Z,87.76
2018-08-30T12:00:01.485Z,86.93
2018-08-30T12:02:28.684Z,85.80
2018-08-30T12:04:56.029Z,86.32
2018-08-30T12:07:23.259Z,85.57
2018-08-30T12:09:51.483Z,84.47
2018-08-30T12:12:18.864Z,85.51
2018-08-30T12:14:46.005Z,83.38
2018-08-30T12:17:15.254Z,84.01
2018-08-30T12:19:42.583Z,81.95
2018-08-30T12:22:09.710Z,81.36
2018-08-30T12:24:36.831Z,82.07
2018-08-30T12:27:04.175Z,80.98
2018-08-30T12:29:31.355Z,81.47
2018-08-30T12:31:58.764Z,81.40
2018-08-30T12:34:26.303Z,81.05
2018-08-30T12:36:53.471Z,79.54
2018-08-30T12:39:21.044Z,79.75
2018-08-30T12:41:48.513Z,79.95
2018-08-30T12:44:15.683Z,77.20
2018-08-30T12:46:42.833Z,78.39
2018-08-30T12:49:10.245Z,77.18
2018-08-30T12:51:37.464Z,78.19
2018-08-30T12:54:05.016Z,77.16
2018-08-30T12:56:32.569Z,78.94
2018-08-30T12:59:05.513Z,77.24
2018-08-30T13:01:32.778Z,78.89
2018-08-30T13:03:59.978Z,77.42
2018-08-30T13:06:27.309Z,78.40
2018-08-30T13:08:54.645Z,78.37
2018-08-30T13:11:22.403Z,75.87
2018-08-30T13:13:49.398Z,75.44
2018-08-30T13:16:17.104Z,74.78
2018-08-30T13:18:44.321Z,75.78
2018-08-30T13:21:11.536Z,76.12
2018-08-30T13:23:39.557Z,77.38
2018-08-30T13:26:06.929Z,76.58
2018-08-30T13:28:34.568Z,78.39
2018-08-30T13:31:02.385Z,78.53
2018-08-30T13:33:29.499Z,78.26
2018-08-30T13:35:57.896Z,78.59
2018-08-30T13:38:24.866Z,78.68
2018-08-30T13:40:58.003Z,77.79
2018-08-30T13:43:25.869Z,77.42
2018-08-30T13:45:53.177Z,77.53
2018-08-30T13:48:20.528Z,76.92
2018-08-30T13:50:47.677Z,75.56
2018-08-30T13:53:15.050Z,75.12
2018-08-30T13:55:42.340Z,76.87
2018-08-30T13:58:10.133Z,77.43
2018-08-30T14:00:37.901Z,76.72
2018-08-30T14:03:05.712Z,76.80
2018-08-30T14:05:33.041Z,77.20
2018-08-30T14:08:00.477Z,77.18
2018-08-30T14:10:27.870Z,76.66
2018-08-30T14:12:56.212Z,76.41
2018-08-30T14:15:23.694Z,76.25
2018-08-30T14:17:50.741Z,75.89
2018-08-30T14:20:18.257Z,74.85
2018-08-30T14:22:45.529Z,74.21
2018-08-30T14:25:12.777Z,75.15
2018-08-30T14:27:40.045Z,72.51
2018-08-30T14:30:07.402Z,74.44
2018-08-30T14:32:34.670Z,72.09
2018-08-30T14:35:03.065Z,72.12
2018-08-30T14:37:30.285Z,70.83
2018-08-30T14:39:57.463Z,71.62
2018-08-30T14:42:24.705Z,70.89
2018-08-30T14:44:51.973Z,70.27
2018-08-30T14:47:19.739Z,70.54
2018-08-30T14:49:46.892Z,69.09
2018-08-30T14:52:14.059Z,71.00
2018-08-30T14:54:41.233Z,70.47
2018-08-30T14:57:08.970Z,68.07
2018-08-30T14:59:36.269Z,68.35
2018-08-30T15:02:03.376Z,68.08
2018-08-30T15:04:30.659Z,67.68
2018-08-30T15:06:57.899Z,67.87
2018-08-30T15:09:25.188Z,68.15
2018-08-30T15:11:52.995Z,68.03
2018-08-30T15:14:20.213Z,68.96
2018-08-30T15:16:47.344Z,69.75
2018-08-30T15:19:14.603Z,69.24
2018-08-30T15:21:41.840Z,69.26
2018-08-30T15:24:09.988Z,69.92
2018-08-30T15:26:37.756Z,69.92
2018-08-30T15:29:05.123Z,69.57
2018-08-30T15:31:32.369Z,70.37
2018-08-30T15:33:59.812Z,69.11
2018-08-30T15:36:27.095Z,68.93
2018-08-30T15:38:54.251Z,68.31
2018-08-30T15:41:21.642Z,69.38
2018-08-30T15:43:48.753Z,68.50
2018-08-30T15:46:16.021Z,69.39
2018-08-30T15:48:43.470Z,68.50
2018-08-30T15:51:10.574Z,68.37
2018-08-30T15:53:38.482Z,69.41
2018-08-30T15:56:05.817Z,68.31
2018-08-30T15:58:33.112Z,66.83
2018-08-30T16:01:00.497Z,66.71
2018-08-30T16:03:28.228Z,66.62
2018-08-30T16:05:55.461Z,65.35
2018-08-30T16:08:22.591Z,68.47
2018-08-30T16:10:50.183Z,67.93
2018-08-30T16:13:17.789Z,68.23
2018-08-30T16:15:46.979Z,69.16
2018-08-30T16:18:14.209Z,70.86
2018-08-30T16:20:41.445Z,73.10
2018-08-30T16:23:25.829Z,77.96
2018-08-30T16:25:52.810Z,80.19
2018-08-30T16:28:20.610Z,81.56
2018-08-30T16:30:48.183Z,82.33
2018-08-30T16:33:15.449Z,83.43
2018-08-30T16:35:42.756Z,83.09
2018-08-30T16:38:10.096Z,83.41
2018-08-30T16:40:37.869Z,84.56
2018-08-30T16:43:05.401Z,84.17
2018-08-30T16:45:32.698Z,83.24
2018-08-30T16:48:00.056Z,82.47
2018-08-30T16:50:27.312Z,82.41
2018-08-30T16:52:54.529Z,82.94
2018-08-30T16:55:21.764Z,82.46
2018-08-30T16:57:48.892Z,83.00
2018-08-30T17:00:16.285Z,81.89
2018-08-30T17:02:43.495Z,83.56
2018-08-30T17:05:10.733Z,82.79
2018-08-30T17:07:38.289Z,84.08
2018-08-30T17:10:05.764Z,84.25
2018-08-30T17:12:33.593Z,83.86
2018-08-30T17:15:00.800Z,84.58
2018-08-30T17:17:28.517Z,84.35
2018-08-30T17:19:55.742Z,84.77
2018-08-30T17:22:22.965Z,86.85
2018-08-30T17:24:50.460Z,89.31
2018-08-30T17:27:17.924Z,89.23
2018-08-30T17:29:45.175Z,90.28
2018-08-30T17:32:12.346Z,91.62
2018-08-30T17:34:39.672Z,90.00
2018-08-30T17:37:07.529Z,90.72
2018-08-30T17:39:34.767Z,90.97
2018-08-30T17:42:02.081Z,91.58
2018-08-30T17:44:29.191Z,93.96
2018-08-30T17:46:56.494Z,97.03
2018-08-30T17:49:23.730Z,99.40
2018-08-30T17:51:50.929Z,100.00
2018-08-30T17:54:18.061Z,100.00
2018-08-30T17:56:45.188Z,100.00
2018-08-30T17:59:12.357Z,100.00
2018-08-30T18:01:39.667Z,100.00
2018-08-30T18:04:06.820Z,100.00
2018-08-30T18:06:33.988Z,100.00
2018-08-30T18:09:01.198Z,100.00
2018-08-30T18:11:28.320Z,100.00
2018-08-30T18:13:55.875Z,100.00
2018-08-30T18:16:23.122Z,100.00
2018-08-30T18:18:50.462Z,100.00
2018-08-30T18:21:21.253Z,100.00
2018-08-30T18:23:48.556Z,100.00
2018-08-30T18:26:16.285Z,100.00
2018-08-30T18:28:43.547Z,100.00
2018-08-30T18:31:10.972Z,100.00
2018-08-30T18:33:38.263Z,100.00
2018-08-30T18:36:05.672Z,100.00
2018-08-30T18:38:33.077Z,100.00
2018-08-30T18:41:01.443Z,100.00
2018-08-30T18:43:28.715Z,100.00
2018-08-30T18:45:56.025Z,100.00
2018-08-30T18:48:23.199Z,100.00
2018-08-30T18:50:50.847Z,100.00
2018-08-30T18:53:18.052Z,100.00
2018-08-30T18:55:45.198Z,100.00
2018-08-30T18:58:13.961Z,100.00
2018-08-30T19:00:41.404Z,100.00
2018-08-30T19:03:08.877Z,100.00
2018-08-30T19:05:36.354Z,100.00
2018-08-30T19:08:03.607Z,100.00
2018-08-30T19:10:30.734Z,100.00
2018-08-30T19:12:57.994Z,100.00
2018-08-30T19:15:32.554Z,100.00
2018-08-30T19:18:05.477Z,100.00
2018-08-30T19:20:32.741Z,100.00
2018-08-30T19:22:59.845Z,100.00
2018-08-30T19:25:28.656Z,100.00
2018-08-30T19:27:55.882Z,100.00
2018-08-30T19:30:25.409Z,100.00
2018-08-30T19:32:58.216Z,100.00
2018-08-30T19:35:31.143Z,100.00
2018-08-30T19:37:58.420Z,100.00
2018-08-30T19:40:31.313Z,100.00
2018-08-30T19:42:59.309Z,100.00
2018-08-30T19:45:26.904Z,100.00
2018-08-30T19:47:54.543Z,100.00
2018-08-30T19:50:21.843Z,100.00
2018-08-30T19:52:48.974Z,100.00
2018-08-30T19:55:16.224Z,100.00
2018-08-30T19:57:43.412Z,100.00
2018-08-30T20:00:10.521Z,100.00
2018-08-30T20:02:39.259Z,100.00
2018-08-30T20:05:06.711Z,100.00
2018-08-30T20:07:33.949Z,100.00
2018-08-30T20:10:01.112Z,100.00
2018-08-30T20:12:28.258Z,100.00
2018-08-30T20:14:55.533Z,100.00
2018-08-30T20:17:22.686Z,100.00
2018-08-30T20:19:49.891Z,100.00
2018-08-30T20:22:17.081Z,100.00
2018-08-30T20:24:44.385Z,100.00
2018-08-30T20:27:11.655Z,100.00
2018-08-30T20:29:38.787Z,100.00
2018-08-30T20:32:06.109Z,100.00
2018-08-30T20:34:33.429Z,100.00
2018-08-30T20:37:00.541Z,100.00
2018-08-30T20:39:28.661Z,100.00
2018-08-30T20:41:56.089Z,100.00
2018-08-30T20:44:23.204Z,100.00
2018-08-30T20:46:50.673Z,100.00
2018-08-30T20:49:17.793Z,100.00
2018-08-30T20:51:45.029Z,100.00
2018-08-30T20:54:12.267Z,100.00
2018-08-30T20:56:39.592Z,100.00
2018-08-30T20:59:06.807Z,100.00
2018-08-30T21:01:33.931Z,100.00
2018-08-30T21:04:01.251Z,100.00
2018-08-30T21:06:28.786Z,100.00
2018-08-30T21:08:55.946Z,100.00
2018-08-30T21:11:23.141Z,100.00
2018-08-30T21:13:50.247Z,100.00
2018-08-30T21:16:17.416Z,100.00
2018-08-30T21:18:44.644Z,100.00
2018-08-30T21:21:11.859Z,100.00
2018-08-30T21:23:39.059Z,100.00
2018-08-30T21:26:06.584Z,100.00
2018-08-30T21:28:34.153Z,100.00
2018-08-30T21:31:01.510Z,100.00
2018-08-30T21:33:28.661Z,100.00
2018-08-30T21:35:55.853Z,100.00
2018-08-30T21:38:22.956Z,98.72
2018-08-30T21:40:50.407Z,100.00
2018-08-30T21:43:17.560Z,100.00
2018-08-30T21:45:44.705Z,99.04
2018-08-30T21:48:11.888Z,99.00
2018-08-30T21:50:39.241Z,100.00
2018-08-30T21:53:06.469Z,98.35
2018-08-30T21:55:33.880Z,98.14
2018-08-30T21:58:01.017Z,98.72
2018-08-30T22:00:29.069Z,98.56
2018-08-30T22:02:56.302Z,99.95
2018-08-30T22:05:23.576Z,98.77
2018-08-30T22:07:50.732Z,99.39
2018-08-30T22:10:17.924Z,98.18
2018-08-30T22:12:45.028Z,98.53
2018-08-30T22:15:12.212Z,98.43
2018-08-30T22:17:39.844Z,98.33
2018-08-30T22:20:07.031Z,97.43
2018-08-30T22:22:34.199Z,97.83
2018-08-30T22:25:01.597Z,99.09
2018-08-30T22:27:28.751Z,99.02
2018-08-30T22:29:55.975Z,98.44
2018-08-30T22:32:23.185Z,98.24
2018-08-30T22:34:50.390Z,99.61
2018-08-30T22:37:17.545Z,98.24
2018-08-30T22:39:44.845Z,97.35
2018-08-30T22:42:12.430Z,97.39
2018-08-30T22:44:39.591Z,96.82
2018-08-30T22:47:06.818Z,95.93
2018-08-30T22:49:35.239Z,95.72
2018-08-30T22:52:02.413Z,93.66
2018-08-30T22:54:29.818Z,92.42
2018-08-30T22:56:57.051Z,92.55
2018-08-30T22:59:24.290Z,92.35
2018-08-30T23:01:51.572Z,92.77
2018-08-30T23:04:18.708Z,92.33
2018-08-30T23:06:45.947Z,92.27
2018-08-30T23:09:13.388Z,92.28
2018-08-30T23:11:40.545Z,94.33
2018-08-30T23:14:08.025Z,92.88
2018-08-30T23:16:35.377Z,93.01
2018-08-30T23:19:02.712Z,93.89
2018-08-30T23:21:29.987Z,94.31
2018-08-30T23:23:57.245Z,96.05
2018-08-30T23:26:24.459Z,94.84
2018-08-30T23:28:51.724Z,94.64
2018-08-30T23:31:18.972Z,94.24
2018-08-30T23:33:46.212Z,95.01
2018-08-30T23:36:13.765Z,95.10
2018-08-30T23:38:40.991Z,94.59
2018-08-30T23:41:08.231Z,93.45
2018-08-30T23:43:35.570Z,95.06
2018-08-30T23:46:02.788Z,93.69
2018-08-30T23:48:29.977Z,94.17
2018-08-30T23:50:57.212Z,94.51
2018-08-30T23:53:24.781Z,94.40
2018-08-30T23:55:52.025Z,93.89
2018-08-30T23:58:30.566Z,94.75
